Aérodrome :
LOGIN :

S'inscrire | Disclaimer

   EN    FR    IT 

 










Légende :    VFR   VFR Marginal   IFR   IFR Intensif   IFR Très Intensif
Visi : 
Plafond : 
>= 8 km
>= 3000ft
5 à 8 km
1000 à 3000 ft
1500m à 5 km
500 à 1000 ft
800 à 1500m
200 à 500 ft
< 800m
< 200 ft
Symboles :   Orages  Brouillard  Fortes neiges  Fortes précipitations  Vent > 20 kt
SIGMETs :   Divers  Orages  Givrage  Turbulence  Onde Orograph.  Cendres Volcan.






- Altitude de l'aérodrome : 65 ft
- Code IATA : PIK


EGPK - Glasgow Prestwick

DERNIER METAR :
  • 230050Z 20006KT 9999 BKN006 09/08 Q1035

METARs EXPIRÉS :
  • 222350Z 18006KT 9999 SCT003 BKN012 09/08 Q1035
  • 222320Z 18004KT 8000 SCT003 BKN012 09/08 Q1036
  • 222250Z 18005KT 3000 BR FEW002 SCT004 BKN008 09/08 Q1036
  • 222220Z 18006KT 1500 BR FEW002 SCT004 BKN008 09/08 Q1036

TAF TAF EGPK
Valide du 23 à 00h jusqu'au 24 à 00h UTC


222254Z 2300/2324 21009KT 9999 SCT004 BKN008
TEMPO 2300/2304 1400 DZ BR BKN004
BECMG 2301/2304 FEW004 SCT008
TEMPO 2304/2318 5000 -SHRA BKN008
BECMG 2318/2321 BKN010
TEMPO 2318/2324 4000 RADZ BKN006
PROB40
TEMPO 2323/2324 BKN004



MET'MAP, la Météo Aéronautique d'un coup d'oeil ! - Copyright ORBIFLY Décembre 2007 - Disclaimer

ORBIFLY MET'MAP TEAM :

Programmation & Développement : Alexandra Zaïnal
Sur une idée originale de : Baudouin d'Aumeries
Assistance à la programmation : Marc-Olivier Méhu
Soutien technique & logistique : Manuel Goepfert

Contact : metmap@orbifly.com




SOURCES & CREDITS :

   NOAA